Rosenort Airport

CKJ2 · 曼尼托巴, 加拿大

使用的METAR站距离机场28 NM。
罗盘
风向 的 风向 280° Rosenort Airport 17/35
风: 5 kt, 2 beaufort

1 kt

5 kt
改变
0 ft 6.000 12.000 18.000 24.000 30.000
Cloud Cloud Cloud Cloud Cloud Cloud
BKN 24.000
METAR CYWG 210000Z 28005KT 15SM BKN240 M06/M08 A2991 RMK CI7 SLP148

METAR Rosenort Airport - CKJ2

Rosenort Airport是,加拿大中的小机场。 该机场位于纬度49,45370和经度-97,42250。 该机场有一条跑道: 17/35. 该机场的伪ICAO代码为CKJ2。 机场在Winnipeg FIR中。

该航空气象观测是针对Winnipeg / James Armstrong Richardson International Airport在2024年2月20日 18:00, 当地时间进行的。

机场观察

风向为280°,速度为5 kt。

可见度为15 mi。

有碎云在24.000 ft的高度。 破损或更高的上限为24.000 ft。

温度为-6 °C,阵风为-13 °C。 露点为-8 °C,相对湿度为86%。 海平面上的气压为29,91 inHg (QNH)。

白天

今天,太阳从07:28升起,在17:58降落。 这适用于Rosenort Airport,世界夏令时可能有所不同。 当地时间与世界标准时间之间的时差为-6 小时。 当前,没有夏令时有效。

公司介绍

我们没有关于这个机场的公司信息。

体会

到Vliegles.nl去找飞行课程,跳伞和其他飞行体验。 浏览页面,了解Rosenort Airport附近所有可用的活动。 你也可以使用搜索功能来寻找你所在地附近的特定飞行课程、跳伞或其他飞行体验。

跑道

Id 标题 侧风 逆风 侧风 %
17/35 180°-360° 5 kt 98 %

逆风成分最大的方向会被突出显示,并用于横风计算。 这并不一定意味着这个方向在使用。

乌云

24.000 ft BKN 碎云

温度 & 天气

温度 -6 °C
露点 -8 °C
相对湿度 86%
风寒 -13 °C
Kp-index 0 (0-9)

评论

SLP148海平面压力为29,97 inHg (29,97 inHg)
CI7

白天

日出
07:28 (12:26)
中午
12:42
日落
17:56

小工具

你想在你的网站上有一个关于Rosenort Airport的当前航空天气(METAR)的小部件吗?

显示HTML代码
?>